sensor_id;sensor_type;location;lat;lon;timestamp;pressure;altitude;pressure_sealevel;temperature
15701;BMP180;7950;42.744;23.174;2022-09-03T00:00:14;65556.66;;;-139.30
15701;BMP180;7950;42.744;23.174;2022-09-03T00:02:47;65556.66;;;-139.30
15701;BMP180;7950;42.744;23.174;2022-09-03T00:05:23;65556.66;;;-139.30
15701;BMP180;7950;42.744;23.174;2022-09-03T00:08:02;65556.66;;;-139.30
15701;BMP180;7950;42.744;23.174;2022-09-03T00:10:44;65556.66;;;-139.30
15701;BMP180;7950;42.744;23.174;2022-09-03T00:13:17;65556.66;;;-139.30
15701;BMP180;7950;42.744;23.174;2022-09-03T00:15:49;65556.66;;;-139.30
15701;BMP180;7950;42.744;23.174;2022-09-03T00:18:23;65556.66;;;-139.30
15701;BMP180;7950;42.744;23.174;2022-09-03T00:20:57;65556.66;;;-139.30
15701;BMP180;7950;42.744;23.174;2022-09-03T00:23:31;65556.66;;;-139.30
15701;BMP180;7950;42.744;23.174;2022-09-03T00:26:19;65556.66;;;-139.30
15701;BMP180;7950;42.744;23.174;2022-09-03T00:28:58;65556.66;;;-139.30
15701;BMP180;7950;42.744;23.174;2022-09-03T00:31:34;65556.66;;;-139.30
15701;BMP180;7950;42.744;23.174;2022-09-03T00:34:15;65556.66;;;-139.30
15701;BMP180;7950;42.744;23.174;2022-09-03T00:36:45;65556.66;;;-139.30
15701;BMP180;7950;42.744;23.174;2022-09-03T00:39:16;65556.66;;;-139.30
15701;BMP180;7950;42.744;23.174;2022-09-03T00:42:12;65556.66;;;-139.30
15701;BMP180;7950;42.744;23.174;2022-09-03T00:45:10;65556.66;;;-139.30
15701;BMP180;7950;42.744;23.174;2022-09-03T00:47:57;65556.66;;;-139.30
15701;BMP180;7950;42.744;23.174;2022-09-03T00:50:41;65556.66;;;-139.30
15701;BMP180;7950;42.744;23.174;2022-09-03T00:53:21;65556.66;;;-139.30
15701;BMP180;7950;42.744;23.174;2022-09-03T00:56:00;65556.66;;;-139.30
15701;BMP180;7950;42.744;23.174;2022-09-03T00:58:52;65556.66;;;-139.30
15701;BMP180;7950;42.744;23.174;2022-09-03T01:01:31;65556.66;;;-139.30
15701;BMP180;7950;42.744;23.174;2022-09-03T01:04:21;65556.66;;;-139.30
15701;BMP180;7950;42.744;23.174;2022-09-03T01:07:04;65556.66;;;-139.30
15701;BMP180;7950;42.744;23.174;2022-09-03T01:09:49;65556.66;;;-139.30
15701;BMP180;7950;42.744;23.174;2022-09-03T01:12:35;65556.66;;;-139.30
15701;BMP180;7950;42.744;23.174;2022-09-03T01:15:15;65556.66;;;-139.30
15701;BMP180;7950;42.744;23.174;2022-09-03T01:18:04;65556.66;;;-139.30
15701;BMP180;7950;42.744;23.174;2022-09-03T01:20:49;65556.66;;;-139.30
15701;BMP180;7950;42.744;23.174;2022-09-03T01:24:22;65556.66;;;-139.30
15701;BMP180;7950;42.744;23.174;2022-09-03T01:27:20;65556.66;;;-139.30
15701;BMP180;7950;42.744;23.174;2022-09-03T01:30:02;65556.66;;;-139.30
15701;BMP180;7950;42.744;23.174;2022-09-03T01:32:43;65556.66;;;-139.30
15701;BMP180;7950;42.744;23.174;2022-09-03T01:35:22;65556.66;;;-139.30
15701;BMP180;7950;42.744;23.174;2022-09-03T01:38:19;65556.66;;;-139.30
15701;BMP180;7950;42.744;23.174;2022-09-03T01:41:07;65556.66;;;-139.30
15701;BMP180;7950;42.744;23.174;2022-09-03T01:44:09;65556.66;;;-139.30
15701;BMP180;7950;42.744;23.174;2022-09-03T01:46:42;65556.66;;;-139.30
15701;BMP180;7950;42.744;23.174;2022-09-03T01:49:22;65556.66;;;-139.30
15701;BMP180;7950;42.744;23.174;2022-09-03T01:52:10;65556.66;;;-139.30
15701;BMP180;7950;42.744;23.174;2022-09-03T01:55:00;65556.66;;;-139.30
15701;BMP180;7950;42.744;23.174;2022-09-03T01:57:46;65556.66;;;-139.30
15701;BMP180;7950;42.744;23.174;2022-09-03T02:00:17;65556.66;;;-139.30
15701;BMP180;7950;42.744;23.174;2022-09-03T02:02:51;65556.66;;;-139.30
15701;BMP180;7950;42.744;23.174;2022-09-03T02:05:22;65556.66;;;-139.30
15701;BMP180;7950;42.744;23.174;2022-09-03T02:07:57;65556.66;;;-139.30
15701;BMP180;7950;42.744;23.174;2022-09-03T02:10:31;65556.66;;;-139.30
15701;BMP180;7950;42.744;23.174;2022-09-03T02:13:06;65556.66;;;-139.30
15701;BMP180;7950;42.744;23.174;2022-09-03T02:15:41;65556.66;;;-139.30
15701;BMP180;7950;42.744;23.174;2022-09-03T02:18:18;65556.66;;;-139.30
15701;BMP180;7950;42.744;23.174;2022-09-03T02:20:49;65556.66;;;-139.30
15701;BMP180;7950;42.744;23.174;2022-09-03T02:23:20;65556.66;;;-139.30
15701;BMP180;7950;42.744;23.174;2022-09-03T02:25:57;65556.66;;;-139.30
15701;BMP180;7950;42.744;23.174;2022-09-03T02:28:27;65556.66;;;-139.30
15701;BMP180;7950;42.744;23.174;2022-09-03T02:30:56;65556.66;;;-139.30
15701;BMP180;7950;42.744;23.174;2022-09-03T02:33:26;65556.66;;;-139.30
15701;BMP180;7950;42.744;23.174;2022-09-03T02:35:55;65556.66;;;-139.30
15701;BMP180;7950;42.744;23.174;2022-09-03T02:38:25;65556.66;;;-139.30
15701;BMP180;7950;42.744;23.174;2022-09-03T02:40:54;65556.66;;;-139.30
15701;BMP180;7950;42.744;23.174;2022-09-03T02:43:31;65556.66;;;-139.30
15701;BMP180;7950;42.744;23.174;2022-09-03T02:46:04;65556.66;;;-139.30
15701;BMP180;7950;42.744;23.174;2022-09-03T02:48:36;65556.66;;;-139.30
15701;BMP180;7950;42.744;23.174;2022-09-03T02:51:05;65556.66;;;-139.30
15701;BMP180;7950;42.744;23.174;2022-09-03T02:53:41;65556.66;;;-139.30
15701;BMP180;7950;42.744;23.174;2022-09-03T02:56:11;65556.66;;;-139.30
15701;BMP180;7950;42.744;23.174;2022-09-03T02:59:05;65556.66;;;-139.30
15701;BMP180;7950;42.744;23.174;2022-09-03T03:01:35;65556.66;;;-139.30
15701;BMP180;7950;42.744;23.174;2022-09-03T03:04:05;65556.66;;;-139.30
15701;BMP180;7950;42.744;23.174;2022-09-03T03:06:34;65556.66;;;-139.30
15701;BMP180;7950;42.744;23.174;2022-09-03T03:09:02;65556.66;;;-139.30
15701;BMP180;7950;42.744;23.174;2022-09-03T03:11:32;65556.66;;;-139.30
15701;BMP180;7950;42.744;23.174;2022-09-03T03:14:01;65556.66;;;-139.30
15701;BMP180;7950;42.744;23.174;2022-09-03T03:16:30;65556.66;;;-139.30
15701;BMP180;7950;42.744;23.174;2022-09-03T03:18:59;65556.66;;;-139.30
15701;BMP180;7950;42.744;23.174;2022-09-03T03:21:29;65556.66;;;-139.30
15701;BMP180;7950;42.744;23.174;2022-09-03T03:23:57;65556.66;;;-139.30
15701;BMP180;7950;42.744;23.174;2022-09-03T03:26:28;65556.66;;;-139.30
15701;BMP180;7950;42.744;23.174;2022-09-03T03:28:59;65556.66;;;-139.30
15701;BMP180;7950;42.744;23.174;2022-09-03T03:31:32;65556.66;;;-139.30
15701;BMP180;7950;42.744;23.174;2022-09-03T03:34:02;65556.66;;;-139.30
15701;BMP180;7950;42.744;23.174;2022-09-03T03:36:33;65556.66;;;-139.30
15701;BMP180;7950;42.744;23.174;2022-09-03T03:39:03;65556.66;;;-139.30
15701;BMP180;7950;42.744;23.174;2022-09-03T03:41:34;65556.66;;;-139.30
15701;BMP180;7950;42.744;23.174;2022-09-03T03:44:06;65556.66;;;-139.30
15701;BMP180;7950;42.744;23.174;2022-09-03T03:46:37;65556.66;;;-139.30
15701;BMP180;7950;42.744;23.174;2022-09-03T03:49:07;65556.66;;;-139.30
15701;BMP180;7950;42.744;23.174;2022-09-03T03:51:38;65556.66;;;-139.30
15701;BMP180;7950;42.744;23.174;2022-09-03T03:54:07;65556.66;;;-139.30
15701;BMP180;7950;42.744;23.174;2022-09-03T03:56:38;65556.66;;;-139.30
15701;BMP180;7950;42.744;23.174;2022-09-03T03:59:07;65556.66;;;-139.30
15701;BMP180;7950;42.744;23.174;2022-09-03T04:01:36;65556.66;;;-139.30
15701;BMP180;7950;42.744;23.174;2022-09-03T04:04:04;65556.66;;;-139.30
15701;BMP180;7950;42.744;23.174;2022-09-03T04:06:33;65556.66;;;-139.30
15701;BMP180;7950;42.744;23.174;2022-09-03T04:09:03;65556.66;;;-139.30
15701;BMP180;7950;42.744;23.174;2022-09-03T04:11:31;65556.66;;;-139.30
15701;BMP180;7950;42.744;23.174;2022-09-03T04:14:02;65556.66;;;-139.30
15701;BMP180;7950;42.744;23.174;2022-09-03T04:16:31;65556.66;;;-139.30
15701;BMP180;7950;42.744;23.174;2022-09-03T04:19:00;65556.66;;;-139.30
15701;BMP180;7950;42.744;23.174;2022-09-03T04:21:30;65556.66;;;-139.30
15701;BMP180;7950;42.744;23.174;2022-09-03T04:23:58;65556.66;;;-139.30
15701;BMP180;7950;42.744;23.174;2022-09-03T04:26:53;65556.66;;;-139.30
15701;BMP180;7950;42.744;23.174;2022-09-03T04:29:22;65556.66;;;-139.30
15701;BMP180;7950;42.744;23.174;2022-09-03T04:31:51;65556.66;;;-139.30
15701;BMP180;7950;42.744;23.174;2022-09-03T04:34:36;65556.66;;;-139.30
15701;BMP180;7950;42.744;23.174;2022-09-03T04:37:05;65556.66;;;-139.30
15701;BMP180;7950;42.744;23.174;2022-09-03T04:39:34;65556.66;;;-139.30
15701;BMP180;7950;42.744;23.174;2022-09-03T04:42:04;65556.66;;;-139.30
15701;BMP180;7950;42.744;23.174;2022-09-03T04:44:33;65556.66;;;-139.30
15701;BMP180;7950;42.744;23.174;2022-09-03T04:58:15;94510.84;;;17.35
15701;BMP180;7950;42.744;23.174;2022-09-03T05:00:43;94506.09;;;17.32
15701;BMP180;7950;42.744;23.174;2022-09-03T05:03:12;94510.69;;;17.26
15701;BMP180;7950;42.744;23.174;2022-09-03T05:05:40;94527.47;;;17.22
15701;BMP180;7950;42.744;23.174;2022-09-03T05:08:09;94517.28;;;17.29
15701;BMP180;7950;42.744;23.174;2022-09-03T05:10:37;94512.22;;;17.32
15701;BMP180;7950;42.744;23.174;2022-09-03T05:13:06;94519.06;;;17.33
15701;BMP180;7950;42.744;23.174;2022-09-03T05:15:36;94523.59;;;17.33
15701;BMP180;7950;42.744;23.174;2022-09-03T05:18:04;94526.16;;;17.38
15701;BMP180;7950;42.744;23.174;2022-09-03T05:20:33;94515.22;;;17.44
15701;BMP180;7950;42.744;23.174;2022-09-03T05:23:02;94509.97;;;17.58
15701;BMP180;7950;42.744;23.174;2022-09-03T05:25:31;94516.44;;;17.52
15701;BMP180;7950;42.744;23.174;2022-09-03T05:28:09;94515.47;;;17.61
15701;BMP180;7950;42.744;23.174;2022-09-03T05:30:39;94511.34;;;17.69
15701;BMP180;7950;42.744;23.174;2022-09-03T05:33:07;94519.44;;;17.77
15701;BMP180;7950;42.744;23.174;2022-09-03T05:35:36;94517.19;;;17.71
15701;BMP180;7950;42.744;23.174;2022-09-03T05:38:06;94519.25;;;17.74
15701;BMP180;7950;42.744;23.174;2022-09-03T05:40:35;94517.19;;;17.71
15701;BMP180;7950;42.744;23.174;2022-09-03T05:43:03;94514.34;;;17.49
15701;BMP180;7950;42.744;23.174;2022-09-03T05:45:34;94509.31;;;17.66
15701;BMP180;7950;42.744;23.174;2022-09-03T05:48:04;94518.25;;;17.70
15701;BMP180;7950;42.744;23.174;2022-09-03T05:50:33;94524.09;;;17.85
15701;BMP180;7950;42.744;23.174;2022-09-03T05:53:01;94519.88;;;17.98
15701;BMP180;7950;42.744;23.174;2022-09-03T05:55:30;94521.44;;;17.99
15701;BMP180;7950;42.744;23.174;2022-09-03T05:57:59;94517.28;;;17.79
15701;BMP180;7950;42.744;23.174;2022-09-03T06:00:27;94520.97;;;17.97
15701;BMP180;7950;42.744;23.174;2022-09-03T06:02:56;94518.50;;;18.00
15701;BMP180;7950;42.744;23.174;2022-09-03T06:05:26;94523.66;;;18.24
15701;BMP180;7950;42.744;23.174;2022-09-03T06:07:54;94522.00;;;18.41
15701;BMP180;7950;42.744;23.174;2022-09-03T06:10:23;94531.38;;;18.52
15701;BMP180;7950;42.744;23.174;2022-09-03T06:12:58;94530.56;;;18.52
15701;BMP180;7950;42.744;23.174;2022-09-03T06:15:29;94529.06;;;18.59
15701;BMP180;7950;42.744;23.174;2022-09-03T06:17:58;94531.63;;;18.78
15701;BMP180;7950;42.744;23.174;2022-09-03T06:20:28;94525.34;;;18.74
15701;BMP180;7950;42.744;23.174;2022-09-03T06:23:03;94530.97;;;18.59
15701;BMP180;7950;42.744;23.174;2022-09-03T06:25:31;94529.28;;;18.49
15701;BMP180;7950;42.744;23.174;2022-09-03T06:28:00;94536.56;;;18.57
15701;BMP180;7950;42.744;23.174;2022-09-03T06:30:29;94538.84;;;18.64
15701;BMP180;7950;42.744;23.174;2022-09-03T06:32:57;94537.25;;;18.63
15701;BMP180;7950;42.744;23.174;2022-09-03T06:35:28;94540.00;;;18.71
15701;BMP180;7950;42.744;23.174;2022-09-03T06:38:08;94549.06;;;18.70
15701;BMP180;7950;42.744;23.174;2022-09-03T06:40:38;94547.69;;;18.73
15701;BMP180;7950;42.744;23.174;2022-09-03T06:43:06;94544.25;;;18.59
15701;BMP180;7950;42.744;23.174;2022-09-03T06:45:37;94539.22;;;18.57
15701;BMP180;7950;42.744;23.174;2022-09-03T06:48:05;94541.59;;;18.59
15701;BMP180;7950;42.744;23.174;2022-09-03T06:50:35;94536.16;;;18.50
15701;BMP180;7950;42.744;23.174;2022-09-03T06:53:04;94543.66;;;18.48
15701;BMP180;7950;42.744;23.174;2022-09-03T06:55:32;94548.69;;;18.50
15701;BMP180;7950;42.744;23.174;2022-09-03T06:58:01;94546.63;;;18.60
15701;BMP180;7950;42.744;23.174;2022-09-03T07:00:30;94542.94;;;18.70
15701;BMP180;7950;42.744;23.174;2022-09-03T07:03:02;94539.19;;;18.84
15701;BMP180;7950;42.744;23.174;2022-09-03T07:05:32;94541.84;;;18.98
15701;BMP180;7950;42.744;23.174;2022-09-03T07:08:02;94545.25;;;19.12
15701;BMP180;7950;42.744;23.174;2022-09-03T07:10:31;94556.19;;;19.10
15701;BMP180;7950;42.744;23.174;2022-09-03T07:13:03;94552.38;;;19.03
15701;BMP180;7950;42.744;23.174;2022-09-03T07:15:32;94549.81;;;18.98
15701;BMP180;7950;42.744;23.174;2022-09-03T07:18:15;94557.69;;;18.89
15701;BMP180;7950;42.744;23.174;2022-09-03T07:20:44;94557.00;;;18.97
15701;BMP180;7950;42.744;23.174;2022-09-03T07:23:14;94558.63;;;19.20
15701;BMP180;7950;42.744;23.174;2022-09-03T07:25:42;94562.06;;;19.34
15701;BMP180;7950;42.744;23.174;2022-09-03T07:28:11;94559.38;;;19.48
15701;BMP180;7950;42.744;23.174;2022-09-03T07:30:40;94564.53;;;19.66
15701;BMP180;7950;42.744;23.174;2022-09-03T07:33:33;94567.97;;;19.67
15701;BMP180;7950;42.744;23.174;2022-09-03T07:36:04;94567.91;;;19.80
15701;BMP180;7950;42.744;23.174;2022-09-03T07:38:35;94566.56;;;19.69
15701;BMP180;7950;42.744;23.174;2022-09-03T07:41:07;94563.06;;;19.82
15701;BMP180;7950;42.744;23.174;2022-09-03T07:43:37;94564.69;;;19.92
15701;BMP180;7950;42.744;23.174;2022-09-03T07:46:06;94571.66;;;20.01
15701;BMP180;7950;42.744;23.174;2022-09-03T07:48:39;94568.94;;;19.93
15701;BMP180;7950;42.744;23.174;2022-09-03T07:51:08;94571.75;;;19.96
15701;BMP180;7950;42.744;23.174;2022-09-03T07:53:38;65556.66;;;-139.30
15701;BMP180;7950;42.744;23.174;2022-09-03T07:56:08;65556.66;;;-139.30
15701;BMP180;7950;42.744;23.174;2022-09-03T07:58:38;65556.66;;;-139.30
15701;BMP180;7950;42.744;23.174;2022-09-03T08:01:11;65556.66;;;-139.30
15701;BMP180;7950;42.744;23.174;2022-09-03T08:03:44;65556.66;;;-139.30
15701;BMP180;7950;42.744;23.174;2022-09-03T08:06:16;65556.66;;;-139.30
15701;BMP180;7950;42.744;23.174;2022-09-03T08:08:46;65556.66;;;-139.30
15701;BMP180;7950;42.744;23.174;2022-09-03T08:11:19;65556.66;;;-139.30
15701;BMP180;7950;42.744;23.174;2022-09-03T08:14:16;65556.66;;;-139.30
15701;BMP180;7950;42.744;23.174;2022-09-03T08:16:46;65556.66;;;-139.30
15701;BMP180;7950;42.744;23.174;2022-09-03T08:19:16;65556.66;;;-139.30
15701;BMP180;7950;42.744;23.174;2022-09-03T08:21:46;65556.66;;;-139.30
15701;BMP180;7950;42.744;23.174;2022-09-03T08:24:17;65556.66;;;-139.30
15701;BMP180;7950;42.744;23.174;2022-09-03T08:26:48;65556.66;;;-139.30
15701;BMP180;7950;42.744;23.174;2022-09-03T08:29:19;65556.66;;;-139.30
15701;BMP180;7950;42.744;23.174;2022-09-03T08:31:48;65556.66;;;-139.30
15701;BMP180;7950;42.744;23.174;2022-09-03T08:34:17;65556.66;;;-139.30
15701;BMP180;7950;42.744;23.174;2022-09-03T08:36:46;65556.66;;;-139.30
15701;BMP180;7950;42.744;23.174;2022-09-03T08:39:17;65556.66;;;-139.30
15701;BMP180;7950;42.744;23.174;2022-09-03T08:42:15;65556.66;;;-139.30
15701;BMP180;7950;42.744;23.174;2022-09-03T08:44:52;65556.66;;;-139.30
15701;BMP180;7950;42.744;23.174;2022-09-03T08:47:28;65556.66;;;-139.30
15701;BMP180;7950;42.744;23.174;2022-09-03T08:50:07;65556.66;;;-139.30
15701;BMP180;7950;42.744;23.174;2022-09-03T08:52:44;65556.66;;;-139.30
15701;BMP180;7950;42.744;23.174;2022-09-03T08:55:25;65556.66;;;-139.30
15701;BMP180;7950;42.744;23.174;2022-09-03T08:58:02;65556.66;;;-139.30
15701;BMP180;7950;42.744;23.174;2022-09-03T09:00:47;65556.66;;;-139.30
15701;BMP180;7950;42.744;23.174;2022-09-03T09:03:37;65556.66;;;-139.30
15701;BMP180;7950;42.744;23.174;2022-09-03T09:06:19;65556.66;;;-139.30
15701;BMP180;7950;42.744;23.174;2022-09-03T09:09:01;65556.66;;;-139.30
15701;BMP180;7950;42.744;23.174;2022-09-03T09:11:49;65556.66;;;-139.30
15701;BMP180;7950;42.744;23.174;2022-09-03T09:14:32;65556.66;;;-139.30
15701;BMP180;7950;42.744;23.174;2022-09-03T09:17:35;65556.66;;;-139.30
15701;BMP180;7950;42.744;23.174;2022-09-03T09:20:20;65556.66;;;-139.30
15701;BMP180;7950;42.744;23.174;2022-09-03T09:22:56;65556.66;;;-139.30
15701;BMP180;7950;42.744;23.174;2022-09-03T09:25:28;65556.66;;;-139.30
15701;BMP180;7950;42.744;23.174;2022-09-03T09:28:03;65556.66;;;-139.30
15701;BMP180;7950;42.744;23.174;2022-09-03T09:30:33;65556.66;;;-139.30
15701;BMP180;7950;42.744;23.174;2022-09-03T09:33:02;65556.66;;;-139.30
15701;BMP180;7950;42.744;23.174;2022-09-03T09:35:31;65556.66;;;-139.30
15701;BMP180;7950;42.744;23.174;2022-09-03T09:37:59;65556.66;;;-139.30
15701;BMP180;7950;42.744;23.174;2022-09-03T09:40:32;65556.66;;;-139.30
15701;BMP180;7950;42.744;23.174;2022-09-03T09:43:10;65556.66;;;-139.30
15701;BMP180;7950;42.744;23.174;2022-09-03T09:45:44;65556.66;;;-139.30
15701;BMP180;7950;42.744;23.174;2022-09-03T09:48:21;65556.66;;;-139.30
15701;BMP180;7950;42.744;23.174;2022-09-03T09:51:03;65556.66;;;-139.30
15701;BMP180;7950;42.744;23.174;2022-09-03T09:53:33;65556.66;;;-139.30
15701;BMP180;7950;42.744;23.174;2022-09-03T09:56:02;65556.66;;;-139.30
15701;BMP180;7950;42.744;23.174;2022-09-03T09:58:34;65556.66;;;-139.30
15701;BMP180;7950;42.744;23.174;2022-09-03T10:01:10;65556.66;;;-139.30
15701;BMP180;7950;42.744;23.174;2022-09-03T10:03:52;65556.66;;;-139.30
15701;BMP180;7950;42.744;23.174;2022-09-03T10:06:24;65556.66;;;-139.30
15701;BMP180;7950;42.744;23.174;2022-09-03T10:09:14;65556.66;;;-139.30
15701;BMP180;7950;42.744;23.174;2022-09-03T10:11:47;65556.66;;;-139.30
15701;BMP180;7950;42.744;23.174;2022-09-03T10:14:24;65556.66;;;-139.30
15701;BMP180;7950;42.744;23.174;2022-09-03T10:17:08;65556.66;;;-139.30
15701;BMP180;7950;42.744;23.174;2022-09-03T10:19:47;65556.66;;;-139.30
15701;BMP180;7950;42.744;23.174;2022-09-03T10:22:46;65556.66;;;-139.30
15701;BMP180;7950;42.744;23.174;2022-09-03T10:25:34;65556.66;;;-139.30
15701;BMP180;7950;42.744;23.174;2022-09-03T10:28:08;65556.66;;;-139.30
15701;BMP180;7950;42.744;23.174;2022-09-03T10:31:01;65556.66;;;-139.30
15701;BMP180;7950;42.744;23.174;2022-09-03T10:33:38;65556.66;;;-139.30
15701;BMP180;7950;42.744;23.174;2022-09-03T10:36:17;65556.66;;;-139.30
15701;BMP180;7950;42.744;23.174;2022-09-03T10:38:52;65556.66;;;-139.30
15701;BMP180;7950;42.744;23.174;2022-09-03T10:41:37;65556.66;;;-139.30
15701;BMP180;7950;42.744;23.174;2022-09-03T10:44:27;65556.66;;;-139.30
15701;BMP180;7950;42.744;23.174;2022-09-03T10:47:25;65556.66;;;-139.30
15701;BMP180;7950;42.744;23.174;2022-09-03T10:50:08;65556.66;;;-139.30
15701;BMP180;7950;42.744;23.174;2022-09-03T10:53:06;65556.66;;;-139.30
15701;BMP180;7950;42.744;23.174;2022-09-03T10:55:47;65556.66;;;-139.30
15701;BMP180;7950;42.744;23.174;2022-09-03T10:58:44;65556.66;;;-139.30
15701;BMP180;7950;42.744;23.174;2022-09-03T11:01:30;65556.66;;;-139.30
15701;BMP180;7950;42.744;23.174;2022-09-03T11:04:31;65556.66;;;-139.30
15701;BMP180;7950;42.744;23.174;2022-09-03T11:07:07;65556.66;;;-139.30
15701;BMP180;7950;42.744;23.174;2022-09-03T11:09:41;65556.66;;;-139.30
15701;BMP180;7950;42.744;23.174;2022-09-03T11:12:18;65556.66;;;-139.30
15701;BMP180;7950;42.744;23.174;2022-09-03T11:14:56;65556.66;;;-139.30
15701;BMP180;7950;42.744;23.174;2022-09-03T11:17:36;65556.66;;;-139.30
15701;BMP180;7950;42.744;23.174;2022-09-03T11:20:16;65556.66;;;-139.30
15701;BMP180;7950;42.744;23.174;2022-09-03T11:22:49;65556.66;;;-139.30
15701;BMP180;7950;42.744;23.174;2022-09-03T11:25:21;65556.66;;;-139.30
15701;BMP180;7950;42.744;23.174;2022-09-03T11:28:04;65556.66;;;-139.30
15701;BMP180;7950;42.744;23.174;2022-09-03T11:31:01;65556.66;;;-139.30
15701;BMP180;7950;42.744;23.174;2022-09-03T11:33:34;65556.66;;;-139.30
15701;BMP180;7950;42.744;23.174;2022-09-03T11:36:10;65556.66;;;-139.30
15701;BMP180;7950;42.744;23.174;2022-09-03T11:38:39;65556.66;;;-139.30
15701;BMP180;7950;42.744;23.174;2022-09-03T11:41:14;65556.66;;;-139.30
15701;BMP180;7950;42.744;23.174;2022-09-03T11:43:50;65556.66;;;-139.30
15701;BMP180;7950;42.744;23.174;2022-09-03T11:46:29;65556.66;;;-139.30
15701;BMP180;7950;42.744;23.174;2022-09-03T11:49:10;65556.66;;;-139.30
15701;BMP180;7950;42.744;23.174;2022-09-03T11:51:41;65556.66;;;-139.30
15701;BMP180;7950;42.744;23.174;2022-09-03T11:54:24;65556.66;;;-139.30
15701;BMP180;7950;42.744;23.174;2022-09-03T11:57:09;65556.66;;;-139.30
15701;BMP180;7950;42.744;23.174;2022-09-03T11:59:41;65556.66;;;-139.30
15701;BMP180;7950;42.744;23.174;2022-09-03T12:02:26;65556.66;;;-139.30
15701;BMP180;7950;42.744;23.174;2022-09-03T12:05:16;65556.66;;;-139.30
15701;BMP180;7950;42.744;23.174;2022-09-03T12:08:27;65556.66;;;-139.30
15701;BMP180;7950;42.744;23.174;2022-09-03T12:11:19;65556.66;;;-139.30
15701;BMP180;7950;42.744;23.174;2022-09-03T12:13:58;65556.66;;;-139.30
15701;BMP180;7950;42.744;23.174;2022-09-03T12:17:03;65556.66;;;-139.30
15701;BMP180;7950;42.744;23.174;2022-09-03T12:19:40;65556.66;;;-139.30
15701;BMP180;7950;42.744;23.174;2022-09-03T12:22:16;65556.66;;;-139.30
15701;BMP180;7950;42.744;23.174;2022-09-03T12:24:48;65556.66;;;-139.30
15701;BMP180;7950;42.744;23.174;2022-09-03T12:27:20;65556.66;;;-139.30
15701;BMP180;7950;42.744;23.174;2022-09-03T12:29:57;65556.66;;;-139.30
15701;BMP180;7950;42.744;23.174;2022-09-03T12:32:29;65556.66;;;-139.30
15701;BMP180;7950;42.744;23.174;2022-09-03T12:35:11;65556.66;;;-139.30
15701;BMP180;7950;42.744;23.174;2022-09-03T12:38:00;65556.66;;;-139.30
15701;BMP180;7950;42.744;23.174;2022-09-03T12:40:42;65556.66;;;-139.30
15701;BMP180;7950;42.744;23.174;2022-09-03T12:43:31;65556.66;;;-139.30
15701;BMP180;7950;42.744;23.174;2022-09-03T12:46:13;65556.66;;;-139.30
15701;BMP180;7950;42.744;23.174;2022-09-03T12:48:52;65556.66;;;-139.30
15701;BMP180;7950;42.744;23.174;2022-09-03T12:51:42;65556.66;;;-139.30
15701;BMP180;7950;42.744;23.174;2022-09-03T12:54:16;65556.66;;;-139.30
15701;BMP180;7950;42.744;23.174;2022-09-03T12:56:54;65556.66;;;-139.30
15701;BMP180;7950;42.744;23.174;2022-09-03T12:59:27;65556.66;;;-139.30
15701;BMP180;7950;42.744;23.174;2022-09-03T13:02:05;65556.66;;;-139.30
15701;BMP180;7950;42.744;23.174;2022-09-03T13:04:41;65556.66;;;-139.30
15701;BMP180;7950;42.744;23.174;2022-09-03T13:07:21;65556.66;;;-139.30
15701;BMP180;7950;42.744;23.174;2022-09-03T13:09:57;65556.66;;;-139.30
15701;BMP180;7950;42.744;23.174;2022-09-03T13:12:41;65556.66;;;-139.30
15701;BMP180;7950;42.744;23.174;2022-09-03T13:15:20;65556.66;;;-139.30
15701;BMP180;7950;42.744;23.174;2022-09-03T13:18:22;65556.66;;;-139.30
15701;BMP180;7950;42.744;23.174;2022-09-03T13:21:10;65556.66;;;-139.30
15701;BMP180;7950;42.744;23.174;2022-09-03T13:24:18;65556.66;;;-139.30
15701;BMP180;7950;42.744;23.174;2022-09-03T13:27:05;65556.66;;;-139.30
15701;BMP180;7950;42.744;23.174;2022-09-03T13:30:03;65556.66;;;-139.30
15701;BMP180;7950;42.744;23.174;2022-09-03T13:32:43;65556.66;;;-139.30
15701;BMP180;7950;42.744;23.174;2022-09-03T13:35:29;65556.66;;;-139.30
15701;BMP180;7950;42.744;23.174;2022-09-03T13:38:12;65556.66;;;-139.30
15701;BMP180;7950;42.744;23.174;2022-09-03T13:40:46;65556.66;;;-139.30
15701;BMP180;7950;42.744;23.174;2022-09-03T13:43:28;65556.66;;;-139.30
15701;BMP180;7950;42.744;23.174;2022-09-03T13:46:05;65556.66;;;-139.30
15701;BMP180;7950;42.744;23.174;2022-09-03T13:48:39;65556.66;;;-139.30
15701;BMP180;7950;42.744;23.174;2022-09-03T13:51:28;65556.66;;;-139.30
15701;BMP180;7950;42.744;23.174;2022-09-03T13:54:07;65556.66;;;-139.30
15701;BMP180;7950;42.744;23.174;2022-09-03T13:56:59;65556.66;;;-139.30
15701;BMP180;7950;42.744;23.174;2022-09-03T13:59:44;65556.66;;;-139.30
15701;BMP180;7950;42.744;23.174;2022-09-03T14:02:27;65556.66;;;-139.30
15701;BMP180;7950;42.744;23.174;2022-09-03T14:05:05;65556.66;;;-139.30
15701;BMP180;7950;42.744;23.174;2022-09-03T14:08:00;65556.66;;;-139.30
15701;BMP180;7950;42.744;23.174;2022-09-03T14:10:53;65556.66;;;-139.30
15701;BMP180;7950;42.744;23.174;2022-09-03T14:13:38;65556.66;;;-139.30
15701;BMP180;7950;42.744;23.174;2022-09-03T14:16:19;65556.66;;;-139.30
15701;BMP180;7950;42.744;23.174;2022-09-03T14:18:59;65556.66;;;-139.30
15701;BMP180;7950;42.744;23.174;2022-09-03T14:21:34;65556.66;;;-139.30
15701;BMP180;7950;42.744;23.174;2022-09-03T14:24:14;65556.66;;;-139.30
15701;BMP180;7950;42.744;23.174;2022-09-03T14:26:54;65556.66;;;-139.30
15701;BMP180;7950;42.744;23.174;2022-09-03T14:29:27;65556.66;;;-139.30
15701;BMP180;7950;42.744;23.174;2022-09-03T14:32:26;65556.66;;;-139.30
15701;BMP180;7950;42.744;23.174;2022-09-03T14:35:49;65556.66;;;-139.30
15701;BMP180;7950;42.744;23.174;2022-09-03T14:38:47;65556.66;;;-139.30
15701;BMP180;7950;42.744;23.174;2022-09-03T14:42:15;65556.66;;;-139.30
15701;BMP180;7950;42.744;23.174;2022-09-03T14:45:17;65556.66;;;-139.30
15701;BMP180;7950;42.744;23.174;2022-09-03T14:48:12;65556.66;;;-139.30
15701;BMP180;7950;42.744;23.174;2022-09-03T14:51:01;65556.66;;;-139.30
15701;BMP180;7950;42.744;23.174;2022-09-03T14:54:18;65556.66;;;-139.30
15701;BMP180;7950;42.744;23.174;2022-09-03T14:57:16;65556.66;;;-139.30